sensor_id;sensor_type;location;lat;lon;timestamp;P1;durP1;ratioP1;P2;durP2;ratioP2
45358;SDS011;31096;49.292;8.710;2023-05-10T00:01:11;4.72;;;2.20;;
45358;SDS011;31096;49.292;8.710;2023-05-10T00:06:02;4.63;;;2.30;;
45358;SDS011;31096;49.292;8.710;2023-05-10T00:10:53;3.70;;;2.00;;
45358;SDS011;31096;49.292;8.710;2023-05-10T00:15:44;3.30;;;1.73;;
45358;SDS011;31096;49.292;8.710;2023-05-10T00:20:34;3.87;;;2.20;;
45358;SDS011;31096;49.292;8.710;2023-05-10T00:25:25;4.53;;;2.00;;
45358;SDS011;31096;49.292;8.710;2023-05-10T00:30:16;4.40;;;1.90;;
45358;SDS011;31096;49.292;8.710;2023-05-10T00:35:07;3.53;;;2.10;;
45358;SDS011;31096;49.292;8.710;2023-05-10T00:39:58;3.75;;;1.90;;
45358;SDS011;31096;49.292;8.710;2023-05-10T00:44:49;3.43;;;2.07;;
45358;SDS011;31096;49.292;8.710;2023-05-10T00:49:40;3.70;;;2.20;;
45358;SDS011;31096;49.292;8.710;2023-05-10T00:54:31;4.15;;;2.30;;
45358;SDS011;31096;49.292;8.710;2023-05-10T00:59:22;3.60;;;2.00;;
45358;SDS011;31096;49.292;8.710;2023-05-10T01:04:13;3.47;;;1.90;;
45358;SDS011;31096;49.292;8.710;2023-05-10T01:09:05;3.30;;;1.90;;
45358;SDS011;31096;49.292;8.710;2023-05-10T01:13:56;3.63;;;1.80;;
45358;SDS011;31096;49.292;8.710;2023-05-10T01:18:48;3.13;;;1.67;;
45358;SDS011;31096;49.292;8.710;2023-05-10T01:35:02;3.30;;;1.85;;
45358;SDS011;31096;49.292;8.710;2023-05-10T01:40:15;3.73;;;2.20;;
45358;SDS011;31096;49.292;8.710;2023-05-10T01:50:22;3.13;;;1.70;;
45358;SDS011;31096;49.292;8.710;2023-05-10T01:55:18;3.40;;;1.80;;
45358;SDS011;31096;49.292;8.710;2023-05-10T02:00:10;3.77;;;1.63;;
45358;SDS011;31096;49.292;8.710;2023-05-10T02:05:02;4.13;;;2.35;;
45358;SDS011;31096;49.292;8.710;2023-05-10T02:09:55;3.63;;;2.20;;
45358;SDS011;31096;49.292;8.710;2023-05-10T02:14:46;3.30;;;1.70;;
45358;SDS011;31096;49.292;8.710;2023-05-10T02:19:38;3.58;;;1.90;;
45358;SDS011;31096;49.292;8.710;2023-05-10T02:24:30;3.70;;;1.98;;
45358;SDS011;31096;49.292;8.710;2023-05-10T02:29:23;3.67;;;2.00;;
45358;SDS011;31096;49.292;8.710;2023-05-10T02:34:15;4.75;;;1.65;;
45358;SDS011;31096;49.292;8.710;2023-05-10T02:39:06;3.80;;;2.10;;
45358;SDS011;31096;49.292;8.710;2023-05-10T02:43:59;4.10;;;2.43;;
45358;SDS011;31096;49.292;8.710;2023-05-10T02:48:52;3.97;;;2.20;;
45358;SDS011;31096;49.292;8.710;2023-05-10T02:53:43;4.07;;;2.20;;
45358;SDS011;31096;49.292;8.710;2023-05-10T02:58:36;3.63;;;2.13;;
45358;SDS011;31096;49.292;8.710;2023-05-10T03:03:27;4.27;;;2.40;;
45358;SDS011;31096;49.292;8.710;2023-05-10T03:08:18;4.18;;;2.53;;
45358;SDS011;31096;49.292;8.710;2023-05-10T03:18:21;4.38;;;2.50;;
45358;SDS011;31096;49.292;8.710;2023-05-10T03:28:07;4.22;;;2.13;;
45358;SDS011;31096;49.292;8.710;2023-05-10T03:33:03;3.70;;;2.27;;
45358;SDS011;31096;49.292;8.710;2023-05-10T03:37:57;5.25;;;2.67;;
45358;SDS011;31096;49.292;8.710;2023-05-10T03:42:48;3.67;;;2.07;;
45358;SDS011;31096;49.292;8.710;2023-05-10T03:47:38;4.32;;;2.20;;
45358;SDS011;31096;49.292;8.710;2023-05-10T03:52:29;4.40;;;2.53;;
45358;SDS011;31096;49.292;8.710;2023-05-10T03:57:20;4.20;;;2.27;;
45358;SDS011;31096;49.292;8.710;2023-05-10T04:02:10;4.88;;;2.45;;
45358;SDS011;31096;49.292;8.710;2023-05-10T04:07:01;4.10;;;2.57;;
45358;SDS011;31096;49.292;8.710;2023-05-10T04:11:52;3.92;;;2.30;;
45358;SDS011;31096;49.292;8.710;2023-05-10T04:16:43;4.83;;;2.60;;
45358;SDS011;31096;49.292;8.710;2023-05-10T04:21:34;3.77;;;2.23;;
45358;SDS011;31096;49.292;8.710;2023-05-10T04:26:24;4.72;;;3.05;;
45358;SDS011;31096;49.292;8.710;2023-05-10T04:31:15;4.40;;;2.60;;
45358;SDS011;31096;49.292;8.710;2023-05-10T04:36:06;4.60;;;3.23;;
45358;SDS011;31096;49.292;8.710;2023-05-10T04:41:07;5.45;;;2.70;;
45358;SDS011;31096;49.292;8.710;2023-05-10T04:45:59;4.95;;;3.20;;
45358;SDS011;31096;49.292;8.710;2023-05-10T04:50:49;5.10;;;2.90;;
45358;SDS011;31096;49.292;8.710;2023-05-10T04:55:42;4.60;;;3.28;;
45358;SDS011;31096;49.292;8.710;2023-05-10T05:00:33;7.67;;;3.40;;
45358;SDS011;31096;49.292;8.710;2023-05-10T05:05:24;6.03;;;3.85;;
45358;SDS011;31096;49.292;8.710;2023-05-10T05:10:15;5.13;;;3.00;;
45358;SDS011;31096;49.292;8.710;2023-05-10T05:15:06;4.70;;;3.00;;
45358;SDS011;31096;49.292;8.710;2023-05-10T05:19:59;5.90;;;3.20;;
45358;SDS011;31096;49.292;8.710;2023-05-10T05:24:49;4.97;;;3.30;;
45358;SDS011;31096;49.292;8.710;2023-05-10T05:29:40;4.53;;;2.50;;
45358;SDS011;31096;49.292;8.710;2023-05-10T05:34:31;4.57;;;2.67;;
45358;SDS011;31096;49.292;8.710;2023-05-10T05:39:21;4.78;;;3.13;;
45358;SDS011;31096;49.292;8.710;2023-05-10T05:44:12;4.80;;;3.30;;
45358;SDS011;31096;49.292;8.710;2023-05-10T05:49:03;4.70;;;3.30;;
45358;SDS011;31096;49.292;8.710;2023-05-10T05:53:53;5.50;;;3.45;;
45358;SDS011;31096;49.292;8.710;2023-05-10T05:58:44;5.23;;;3.33;;
45358;SDS011;31096;49.292;8.710;2023-05-10T06:03:35;8.87;;;3.93;;
45358;SDS011;31096;49.292;8.710;2023-05-10T06:08:25;5.30;;;3.22;;
45358;SDS011;31096;49.292;8.710;2023-05-10T06:13:16;4.80;;;3.37;;
45358;SDS011;31096;49.292;8.710;2023-05-10T06:18:07;5.23;;;3.37;;
45358;SDS011;31096;49.292;8.710;2023-05-10T06:22:57;4.25;;;2.70;;
45358;SDS011;31096;49.292;8.710;2023-05-10T06:27:48;4.37;;;2.83;;
45358;SDS011;31096;49.292;8.710;2023-05-10T06:32:39;8.27;;;2.85;;
45358;SDS011;31096;49.292;8.710;2023-05-10T06:37:30;4.50;;;2.90;;
45358;SDS011;31096;49.292;8.710;2023-05-10T06:42:20;4.63;;;3.07;;
45358;SDS011;31096;49.292;8.710;2023-05-10T06:47:11;5.35;;;3.63;;
45358;SDS011;31096;49.292;8.710;2023-05-10T06:52:02;9.50;;;3.60;;
45358;SDS011;31096;49.292;8.710;2023-05-10T06:56:53;4.57;;;3.10;;
45358;SDS011;31096;49.292;8.710;2023-05-10T07:01:43;4.75;;;2.85;;
45358;SDS011;31096;49.292;8.710;2023-05-10T07:06:34;5.40;;;3.20;;
45358;SDS011;31096;49.292;8.710;2023-05-10T07:11:25;4.70;;;2.90;;
45358;SDS011;31096;49.292;8.710;2023-05-10T07:16:16;5.10;;;3.30;;
45358;SDS011;31096;49.292;8.710;2023-05-10T07:21:07;4.93;;;2.97;;
45358;SDS011;31096;49.292;8.710;2023-05-10T07:25:58;5.93;;;3.27;;
45358;SDS011;31096;49.292;8.710;2023-05-10T07:30:49;5.10;;;3.50;;
45358;SDS011;31096;49.292;8.710;2023-05-10T07:35:40;4.20;;;2.55;;
45358;SDS011;31096;49.292;8.710;2023-05-10T07:40:31;4.07;;;2.63;;
45358;SDS011;31096;49.292;8.710;2023-05-10T07:45:22;5.07;;;2.83;;
45358;SDS011;31096;49.292;8.710;2023-05-10T07:50:13;4.10;;;2.67;;
45358;SDS011;31096;49.292;8.710;2023-05-10T07:55:04;6.93;;;2.70;;
45358;SDS011;31096;49.292;8.710;2023-05-10T08:00:04;4.68;;;2.83;;
45358;SDS011;31096;49.292;8.710;2023-05-10T08:04:56;4.10;;;2.97;;
45358;SDS011;31096;49.292;8.710;2023-05-10T08:09:47;4.30;;;2.60;;
45358;SDS011;31096;49.292;8.710;2023-05-10T08:14:37;4.37;;;2.90;;
45358;SDS011;31096;49.292;8.710;2023-05-10T08:19:28;5.50;;;2.30;;
45358;SDS011;31096;49.292;8.710;2023-05-10T08:24:19;4.13;;;2.37;;
45358;SDS011;31096;49.292;8.710;2023-05-10T08:29:10;3.90;;;2.30;;
45358;SDS011;31096;49.292;8.710;2023-05-10T08:34:02;3.80;;;2.50;;
45358;SDS011;31096;49.292;8.710;2023-05-10T08:38:53;10.57;;;2.63;;
45358;SDS011;31096;49.292;8.710;2023-05-10T08:43:45;4.20;;;2.23;;
45358;SDS011;31096;49.292;8.710;2023-05-10T08:48:36;3.90;;;2.33;;
45358;SDS011;31096;49.292;8.710;2023-05-10T08:53:28;3.53;;;1.92;;
45358;SDS011;31096;49.292;8.710;2023-05-10T08:58:19;4.50;;;2.60;;
45358;SDS011;31096;49.292;8.710;2023-05-10T09:03:10;6.00;;;2.30;;
45358;SDS011;31096;49.292;8.710;2023-05-10T09:08:02;3.72;;;2.40;;
45358;SDS011;31096;49.292;8.710;2023-05-10T09:12:53;3.97;;;2.30;;
45358;SDS011;31096;49.292;8.710;2023-05-10T09:17:46;3.35;;;2.00;;
45358;SDS011;31096;49.292;8.710;2023-05-10T09:22:37;3.90;;;2.30;;
45358;SDS011;31096;49.292;8.710;2023-05-10T09:27:28;3.60;;;2.10;;
45358;SDS011;31096;49.292;8.710;2023-05-10T09:32:19;4.22;;;2.40;;
45358;SDS011;31096;49.292;8.710;2023-05-10T09:37:09;4.37;;;2.10;;
45358;SDS011;31096;49.292;8.710;2023-05-10T09:42:04;3.67;;;1.93;;
45358;SDS011;31096;49.292;8.710;2023-05-10T09:46:59;3.38;;;2.00;;
45358;SDS011;31096;49.292;8.710;2023-05-10T09:52:01;3.25;;;1.70;;
45358;SDS011;31096;49.292;8.710;2023-05-10T09:56:53;3.90;;;2.30;;
45358;SDS011;31096;49.292;8.710;2023-05-10T10:02:05;4.03;;;2.20;;
45358;SDS011;31096;49.292;8.710;2023-05-10T10:06:59;3.43;;;1.93;;
45358;SDS011;31096;49.292;8.710;2023-05-10T10:11:54;3.97;;;2.33;;
45358;SDS011;31096;49.292;8.710;2023-05-10T10:16:45;6.15;;;2.00;;
45358;SDS011;31096;49.292;8.710;2023-05-10T10:21:36;3.70;;;2.20;;
45358;SDS011;31096;49.292;8.710;2023-05-10T10:26:27;3.50;;;2.13;;
45358;SDS011;31096;49.292;8.710;2023-05-10T10:31:24;3.40;;;1.57;;
45358;SDS011;31096;49.292;8.710;2023-05-10T10:36:24;3.38;;;1.90;;
45358;SDS011;31096;49.292;8.710;2023-05-10T10:41:30;3.65;;;2.17;;
45358;SDS011;31096;49.292;8.710;2023-05-10T10:46:26;4.03;;;1.77;;
45358;SDS011;31096;49.292;8.710;2023-05-10T10:51:18;3.83;;;2.03;;
45358;SDS011;31096;49.292;8.710;2023-05-10T10:56:12;3.20;;;1.77;;
45358;SDS011;31096;49.292;8.710;2023-05-10T11:01:18;3.60;;;2.00;;
45358;SDS011;31096;49.292;8.710;2023-05-10T11:06:10;3.30;;;1.67;;
45358;SDS011;31096;49.292;8.710;2023-05-10T11:11:05;3.40;;;2.00;;
45358;SDS011;31096;49.292;8.710;2023-05-10T11:16:09;3.80;;;2.20;;
45358;SDS011;31096;49.292;8.710;2023-05-10T11:21:07;3.40;;;1.80;;
45358;SDS011;31096;49.292;8.710;2023-05-10T11:26:00;3.83;;;1.88;;
45358;SDS011;31096;49.292;8.710;2023-05-10T11:30:51;3.80;;;1.80;;
45358;SDS011;31096;49.292;8.710;2023-05-10T11:35:42;3.90;;;1.90;;
45358;SDS011;31096;49.292;8.710;2023-05-10T11:40:33;4.20;;;2.15;;
45358;SDS011;31096;49.292;8.710;2023-05-10T11:45:26;5.07;;;2.03;;
45358;SDS011;31096;49.292;8.710;2023-05-10T11:50:18;3.23;;;1.43;;
45358;SDS011;31096;49.292;8.710;2023-05-10T11:55:08;3.92;;;2.03;;
45358;SDS011;31096;49.292;8.710;2023-05-10T11:59:59;4.47;;;1.60;;
45358;SDS011;31096;49.292;8.710;2023-05-10T12:04:50;4.80;;;1.90;;
45358;SDS011;31096;49.292;8.710;2023-05-10T12:09:44;3.67;;;2.10;;
45358;SDS011;31096;49.292;8.710;2023-05-10T12:14:55;3.58;;;1.50;;
45358;SDS011;31096;49.292;8.710;2023-05-10T12:19:46;4.03;;;1.83;;
45358;SDS011;31096;49.292;8.710;2023-05-10T12:24:37;3.50;;;1.83;;
45358;SDS011;31096;49.292;8.710;2023-05-10T12:29:29;4.07;;;1.97;;
45358;SDS011;31096;49.292;8.710;2023-05-10T12:39:20;3.60;;;1.75;;
45358;SDS011;31096;49.292;8.710;2023-05-10T12:44:11;4.33;;;2.33;;
45358;SDS011;31096;49.292;8.710;2023-05-10T12:49:02;3.80;;;2.37;;
45358;SDS011;31096;49.292;8.710;2023-05-10T12:53:53;3.67;;;1.87;;
45358;SDS011;31096;49.292;8.710;2023-05-10T12:58:44;4.50;;;1.88;;
45358;SDS011;31096;49.292;8.710;2023-05-10T13:03:38;4.22;;;1.75;;
45358;SDS011;31096;49.292;8.710;2023-05-10T13:08:29;4.07;;;2.10;;
45358;SDS011;31096;49.292;8.710;2023-05-10T13:13:23;3.97;;;2.10;;
45358;SDS011;31096;49.292;8.710;2023-05-10T13:18:13;4.17;;;1.77;;
45358;SDS011;31096;49.292;8.710;2023-05-10T13:23:04;3.60;;;1.77;;
45358;SDS011;31096;49.292;8.710;2023-05-10T13:27:55;3.97;;;2.20;;
45358;SDS011;31096;49.292;8.710;2023-05-10T13:32:46;4.27;;;2.20;;
45358;SDS011;31096;49.292;8.710;2023-05-10T13:37:36;3.95;;;2.13;;
45358;SDS011;31096;49.292;8.710;2023-05-10T13:42:27;3.73;;;2.10;;
45358;SDS011;31096;49.292;8.710;2023-05-10T13:47:18;4.00;;;2.25;;
45358;SDS011;31096;49.292;8.710;2023-05-10T13:52:08;3.97;;;2.30;;
45358;SDS011;31096;49.292;8.710;2023-05-10T13:57:00;3.83;;;2.00;;
45358;SDS011;31096;49.292;8.710;2023-05-10T14:01:51;3.80;;;2.00;;
45358;SDS011;31096;49.292;8.710;2023-05-10T14:06:41;4.10;;;1.90;;
45358;SDS011;31096;49.292;8.710;2023-05-10T14:11:32;3.20;;;1.80;;
45358;SDS011;31096;49.292;8.710;2023-05-10T14:16:23;3.47;;;2.00;;
45358;SDS011;31096;49.292;8.710;2023-05-10T14:21:14;3.83;;;2.30;;
45358;SDS011;31096;49.292;8.710;2023-05-10T14:26:05;6.90;;;1.70;;
45358;SDS011;31096;49.292;8.710;2023-05-10T14:30:56;4.18;;;1.98;;
45358;SDS011;31096;49.292;8.710;2023-05-10T14:35:47;3.40;;;1.77;;
45358;SDS011;31096;49.292;8.710;2023-05-10T14:40:38;15.63;;;2.37;;
45358;SDS011;31096;49.292;8.710;2023-05-10T14:45:30;3.20;;;1.67;;
45358;SDS011;31096;49.292;8.710;2023-05-10T14:50:21;3.30;;;1.60;;
45358;SDS011;31096;49.292;8.710;2023-05-10T14:55:12;3.37;;;1.90;;
45358;SDS011;31096;49.292;8.710;2023-05-10T15:00:05;3.58;;;2.15;;
45358;SDS011;31096;49.292;8.710;2023-05-10T15:04:56;4.63;;;2.00;;
45358;SDS011;31096;49.292;8.710;2023-05-10T15:09:47;4.13;;;1.83;;
45358;SDS011;31096;49.292;8.710;2023-05-10T15:14:38;3.58;;;1.80;;
45358;SDS011;31096;49.292;8.710;2023-05-10T15:19:29;3.87;;;1.70;;
45358;SDS011;31096;49.292;8.710;2023-05-10T15:24:20;3.33;;;1.67;;
45358;SDS011;31096;49.292;8.710;2023-05-10T15:29:11;3.50;;;2.10;;
45358;SDS011;31096;49.292;8.710;2023-05-10T15:34:02;3.60;;;2.20;;
45358;SDS011;31096;49.292;8.710;2023-05-10T15:38:53;5.60;;;1.93;;
45358;SDS011;31096;49.292;8.710;2023-05-10T15:43:44;3.60;;;1.90;;
45358;SDS011;31096;49.292;8.710;2023-05-10T15:48:35;3.30;;;1.97;;
45358;SDS011;31096;49.292;8.710;2023-05-10T15:53:26;3.60;;;2.00;;
45358;SDS011;31096;49.292;8.710;2023-05-10T15:58:16;5.23;;;1.90;;
45358;SDS011;31096;49.292;8.710;2023-05-10T16:03:08;3.40;;;1.65;;
45358;SDS011;31096;49.292;8.710;2023-05-10T16:07:59;3.43;;;1.97;;
45358;SDS011;31096;49.292;8.710;2023-05-10T16:12:50;5.78;;;1.80;;
45358;SDS011;31096;49.292;8.710;2023-05-10T16:17:42;3.17;;;1.75;;
45358;SDS011;31096;49.292;8.710;2023-05-10T16:22:33;3.20;;;1.63;;
45358;SDS011;31096;49.292;8.710;2023-05-10T16:27:25;3.85;;;1.45;;
45358;SDS011;31096;49.292;8.710;2023-05-10T16:32:18;3.73;;;1.67;;
45358;SDS011;31096;49.292;8.710;2023-05-10T16:37:09;3.33;;;1.93;;
45358;SDS011;31096;49.292;8.710;2023-05-10T16:42:00;4.50;;;1.97;;
45358;SDS011;31096;49.292;8.710;2023-05-10T16:46:51;3.20;;;1.70;;
45358;SDS011;31096;49.292;8.710;2023-05-10T16:51:42;4.47;;;1.80;;
45358;SDS011;31096;49.292;8.710;2023-05-10T16:56:32;4.00;;;1.80;;
45358;SDS011;31096;49.292;8.710;2023-05-10T17:01:23;3.33;;;1.97;;
45358;SDS011;31096;49.292;8.710;2023-05-10T17:06:14;3.10;;;1.63;;
45358;SDS011;31096;49.292;8.710;2023-05-10T17:11:05;3.33;;;1.80;;
45358;SDS011;31096;49.292;8.710;2023-05-10T17:15:55;3.47;;;1.80;;
45358;SDS011;31096;49.292;8.710;2023-05-10T17:20:46;3.67;;;1.63;;
45358;SDS011;31096;49.292;8.710;2023-05-10T17:25:37;3.17;;;1.67;;
45358;SDS011;31096;49.292;8.710;2023-05-10T17:30:28;3.70;;;1.50;;
45358;SDS011;31096;49.292;8.710;2023-05-10T17:35:21;3.10;;;1.63;;
45358;SDS011;31096;49.292;8.710;2023-05-10T17:40:12;3.07;;;1.30;;
45358;SDS011;31096;49.292;8.710;2023-05-10T17:45:03;4.75;;;1.38;;
45358;SDS011;31096;49.292;8.710;2023-05-10T17:49:54;3.93;;;1.63;;
45358;SDS011;31096;49.292;8.710;2023-05-10T17:54:45;3.95;;;1.80;;
45358;SDS011;31096;49.292;8.710;2023-05-10T17:59:36;3.50;;;1.50;;
45358;SDS011;31096;49.292;8.710;2023-05-10T18:04:27;3.40;;;1.65;;
45358;SDS011;31096;49.292;8.710;2023-05-10T18:09:18;3.20;;;1.53;;
45358;SDS011;31096;49.292;8.710;2023-05-10T18:14:10;3.60;;;1.73;;
45358;SDS011;31096;49.292;8.710;2023-05-10T18:19:01;3.50;;;1.75;;
45358;SDS011;31096;49.292;8.710;2023-05-10T18:23:51;4.40;;;1.93;;
45358;SDS011;31096;49.292;8.710;2023-05-10T18:28:42;3.47;;;1.30;;
45358;SDS011;31096;49.292;8.710;2023-05-10T18:33:33;3.30;;;1.80;;
45358;SDS011;31096;49.292;8.710;2023-05-10T18:38:24;3.67;;;1.60;;
45358;SDS011;31096;49.292;8.710;2023-05-10T18:43:14;3.60;;;1.63;;
45358;SDS011;31096;49.292;8.710;2023-05-10T18:48:05;4.50;;;1.80;;
45358;SDS011;31096;49.292;8.710;2023-05-10T18:52:57;3.42;;;1.60;;
45358;SDS011;31096;49.292;8.710;2023-05-10T18:57:47;3.00;;;1.50;;
45358;SDS011;31096;49.292;8.710;2023-05-10T19:02:38;3.85;;;1.65;;
45358;SDS011;31096;49.292;8.710;2023-05-10T19:07:30;3.83;;;1.40;;
45358;SDS011;31096;49.292;8.710;2023-05-10T19:12:21;3.30;;;1.80;;
45358;SDS011;31096;49.292;8.710;2023-05-10T19:17:11;3.40;;;1.53;;
45358;SDS011;31096;49.292;8.710;2023-05-10T19:22:02;3.17;;;1.58;;
45358;SDS011;31096;49.292;8.710;2023-05-10T19:26:53;4.30;;;1.23;;
45358;SDS011;31096;49.292;8.710;2023-05-10T19:31:45;3.03;;;1.50;;
45358;SDS011;31096;49.292;8.710;2023-05-10T19:36:36;3.30;;;1.57;;
45358;SDS011;31096;49.292;8.710;2023-05-10T19:41:26;3.20;;;1.63;;
45358;SDS011;31096;49.292;8.710;2023-05-10T19:46:18;3.07;;;1.40;;
45358;SDS011;31096;49.292;8.710;2023-05-10T19:51:09;3.58;;;1.85;;
45358;SDS011;31096;49.292;8.710;2023-05-10T19:56:03;3.10;;;1.40;;
45358;SDS011;31096;49.292;8.710;2023-05-10T20:00:55;3.38;;;1.50;;
45358;SDS011;31096;49.292;8.710;2023-05-10T20:05:46;3.13;;;1.60;;
45358;SDS011;31096;49.292;8.710;2023-05-10T20:10:36;3.20;;;1.60;;
45358;SDS011;31096;49.292;8.710;2023-05-10T20:15:27;3.87;;;1.50;;
45358;SDS011;31096;49.292;8.710;2023-05-10T20:20:18;3.45;;;1.88;;
45358;SDS011;31096;49.292;8.710;2023-05-10T20:25:10;5.47;;;1.80;;
45358;SDS011;31096;49.292;8.710;2023-05-10T20:30:02;3.47;;;1.70;;
45358;SDS011;31096;49.292;8.710;2023-05-10T20:34:56;5.25;;;1.58;;
45358;SDS011;31096;49.292;8.710;2023-05-10T20:39:47;3.83;;;2.03;;
45358;SDS011;31096;49.292;8.710;2023-05-10T20:44:37;3.25;;;1.60;;
45358;SDS011;31096;49.292;8.710;2023-05-10T20:49:28;4.77;;;2.20;;
45358;SDS011;31096;49.292;8.710;2023-05-10T20:54:20;5.80;;;1.60;;
45358;SDS011;31096;49.292;8.710;2023-05-10T20:59:12;3.47;;;1.70;;
45358;SDS011;31096;49.292;8.710;2023-05-10T21:04:02;3.17;;;1.50;;
45358;SDS011;31096;49.292;8.710;2023-05-10T21:08:53;3.17;;;1.57;;
45358;SDS011;31096;49.292;8.710;2023-05-10T21:13:44;4.70;;;1.90;;
45358;SDS011;31096;49.292;8.710;2023-05-10T21:18:35;4.03;;;1.85;;
45358;SDS011;31096;49.292;8.710;2023-05-10T21:23:25;3.50;;;1.73;;
45358;SDS011;31096;49.292;8.710;2023-05-10T21:28:16;4.68;;;2.10;;
45358;SDS011;31096;49.292;8.710;2023-05-10T21:33:07;4.27;;;1.50;;
45358;SDS011;31096;49.292;8.710;2023-05-10T21:37:58;6.47;;;2.10;;
45358;SDS011;31096;49.292;8.710;2023-05-10T21:42:49;3.45;;;1.67;;
45358;SDS011;31096;49.292;8.710;2023-05-10T21:47:40;3.50;;;1.90;;
45358;SDS011;31096;49.292;8.710;2023-05-10T21:52:31;3.40;;;1.48;;
45358;SDS011;31096;49.292;8.710;2023-05-10T21:57:22;3.40;;;1.70;;
45358;SDS011;31096;49.292;8.710;2023-05-10T22:02:12;4.28;;;2.05;;
45358;SDS011;31096;49.292;8.710;2023-05-10T22:07:05;3.70;;;2.03;;
45358;SDS011;31096;49.292;8.710;2023-05-10T22:11:56;3.78;;;1.50;;
45358;SDS011;31096;49.292;8.710;2023-05-10T22:16:47;3.60;;;1.77;;
45358;SDS011;31096;49.292;8.710;2023-05-10T22:21:37;3.33;;;1.90;;
45358;SDS011;31096;49.292;8.710;2023-05-10T22:26:28;4.70;;;1.90;;
45358;SDS011;31096;49.292;8.710;2023-05-10T22:31:19;4.40;;;2.20;;
45358;SDS011;31096;49.292;8.710;2023-05-10T22:36:10;4.03;;;2.00;;
45358;SDS011;31096;49.292;8.710;2023-05-10T22:41:01;4.33;;;2.07;;
45358;SDS011;31096;49.292;8.710;2023-05-10T22:45:51;3.42;;;1.95;;
45358;SDS011;31096;49.292;8.710;2023-05-10T22:50:43;7.50;;;2.80;;
45358;SDS011;31096;49.292;8.710;2023-05-10T22:55:33;4.53;;;2.33;;
45358;SDS011;31096;49.292;8.710;2023-05-10T23:00:25;5.40;;;2.20;;
45358;SDS011;31096;49.292;8.710;2023-05-10T23:05:16;4.37;;;2.27;;
45358;SDS011;31096;49.292;8.710;2023-05-10T23:10:07;4.43;;;2.13;;
45358;SDS011;31096;49.292;8.710;2023-05-10T23:14:59;4.80;;;2.17;;
45358;SDS011;31096;49.292;8.710;2023-05-10T23:19:50;5.60;;;2.50;;
45358;SDS011;31096;49.292;8.710;2023-05-10T23:24:41;4.40;;;1.87;;
45358;SDS011;31096;49.292;8.710;2023-05-10T23:29:31;3.42;;;2.00;;
45358;SDS011;31096;49.292;8.710;2023-05-10T23:34:23;4.07;;;2.00;;
45358;SDS011;31096;49.292;8.710;2023-05-10T23:39:14;3.72;;;1.75;;
45358;SDS011;31096;49.292;8.710;2023-05-10T23:44:05;4.13;;;1.90;;
45358;SDS011;31096;49.292;8.710;2023-05-10T23:48:55;3.90;;;1.70;;
45358;SDS011;31096;49.292;8.710;2023-05-10T23:53:46;3.67;;;2.13;;
45358;SDS011;31096;49.292;8.710;2023-05-10T23:58:37;3.77;;;2.20;;
